• Join FlightAware (Why Join?)
  • Login
  • US Flag 
10:50AM EST


 

Airport Tracker/Info


-or-


 

Live Flight TrackerFlight Track Log ✈ USC105 ✈ 30-Apr-2013 ✈ KYIP - KDPA

Flight Track Log - Related Links

Times and Time Zones

All times are in EDT time to prevent confusion due to time zone crossing. See the USC105 flight status page for this flight to view local times or setup timezone preferences in your user account.

Time Position Orientation Groundspeed Altitude Reporting Facility
EDT Latitude Longitude Course Direction KTS MPH feet Rate Location/Type
12:12AM 42.2472 -83.6128 273° West 119 137 2,400  Level Cleveland Center
12:13AM 42.2442 -83.6544 264° West 116 133 3,300 900 Climbing Cleveland Center
12:14AM 42.2431 -83.6967 268° West 117 135 4,200 840 Climbing Cleveland Center
12:15AM 42.2419 -83.7358 268° West 121 139 4,900 840 Climbing Cleveland Center
12:16AM 42.2386 -83.7806 264° West 119 137 5,900 240 Climbing Cleveland Center
12:18AM 42.2347 -83.9036 268° West 148 170 5,900  Level Chicago Center
12:19AM 42.2289 -83.9756 264° West 156 180 5,900  Level Chicago Center
12:20AM 42.2261 -84.0381 267° West 162 186 6,000  Climbing Chicago Center
12:21AM 42.2219 -84.1033 265° West 168 193 5,900 -60 Descending Chicago Center
12:22AM 42.2167 -84.1569 262° West 172 198 5,900  Level Chicago Center
12:23AM 42.2117 -84.2358 265° West 176 203 5,900  Level Chicago Center
12:24AM 42.2083 -84.2997 266° West 173 199 5,900  Level Chicago Center
12:25AM 42.2056 -84.3656 267° West 174 200 5,900  Level Chicago Center
12:27AM 42.1980 -84.4445 263° West  Level FlightAware Approximate
12:29AM 42.1892 -84.6236 264° West 175 201 5,900  Level Chicago Center
12:30AM 42.1853 -84.6886 265° West 175 201 5,900  Level Chicago Center
12:31AM 42.1817 -84.7536 266° West 176 203 5,900  Level Chicago Center
12:32AM 42.1769 -84.8192 264° West 176 203 5,900  Level Chicago Center
12:33AM 42.1728 -84.8842 265° West 176 203 5,900  Level Chicago Center
12:34AM 42.1587 -84.8645 264° West  Level FlightAware Approximate
12:34AM 42.1681 -84.9494 264° West 176 203 5,900  Level Chicago Center
12:35AM 42.1644 -85.0128 266° West 174 200 5,900  Level Chicago Center
12:36AM 42.1603 -85.0778 265° West 174 200 6,000  Climbing Chicago Center
12:37AM 42.1553 -85.1428 264° West 175 201 5,900 -60 Descending Chicago Center
12:38AM 42.1514 -85.2075 265° West 175 201 5,900  Level Chicago Center
12:39AM 42.1467 -85.2714 264° West 173 199 5,900  Level Chicago Center
12:40AM 42.1425 -85.3358 265° West 174 200 5,900  Level Chicago Center
12:41AM 42.1389 -85.4006 266° West 175 201 5,900  Level Chicago Center
12:42AM 42.1336 -85.4647 264° West 174 200 5,900  Level Chicago Center
12:43AM 42.1286 -85.5414 265° West 173 199 5,900  Level Chicago Center
12:44AM 42.1231 -85.6056 263° West 173 199 5,900  Level Chicago Center
12:45AM 42.1192 -85.6694 265° West 172 198 5,900  Level Chicago Center
12:46AM 42.1142 -85.7336 264° West 173 199 5,900  Level Chicago Center
12:47AM 42.1097 -85.7975 265° West 173 199 5,900  Level Chicago Center
12:48AM 42.1047 -85.8608 264° West 172 198 5,900  Level Chicago Center
12:49AM 42.1006 -85.9244 265° West 172 198 5,900  Level Chicago Center
12:50AM 42.0961 -85.9892 265° West 173 199 6,000  Climbing Chicago Center
12:51AM 42.0914 -86.0519 264° West 171 197 6,000  Level Chicago Center
12:52AM 42.0869 -86.1147 265° West 170 196 6,000  Level Chicago Center
12:53AM 42.0814 -86.1772 263° West 169 194 6,000  Level Chicago Center
12:54AM 42.0769 -86.2394 265° West 169 194 6,000  Level Chicago Center
12:56AM 42.0706 -86.3083 263° West  Level FlightAware Approximate
12:56AM 42.0678 -86.3636 263° West 167 192 6,000  Level Chicago Center
12:57AM 42.0625 -86.4275 264° West 171 197 6,000  Level Chicago Center
12:58AM 42.0586 -86.4894 265° West 167 192 6,000  Level Chicago Center
12:59AM 42.0528 -86.5531 263° West 170 196 6,000  Level Chicago Center
01:00AM 42.0478 -86.6150 264° West 169 194 6,000  Level Chicago Center
01:01AM 42.0433 -86.6789 265° West 171 197 6,000  Level Chicago Center
01:02AM 42.0389 -86.7419 265° West 170 196 6,000  Level Chicago Center
01:03AM 42.0336 -86.8072 264° West 169 194 6,000  Level Chicago Center
01:04AM 42.0286 -86.8694 264° West 169 194 6,000  Level Chicago Center
01:05AM 42.0239 -86.9308 264° West 167 192 6,000  Level Chicago Center
01:06AM 42.0175 -86.9922 262° West 167 192 6,000 -60 Level Chicago Center
01:07AM 42.0119 -87.0531 263° West 166 191 5,900 -60 Descending Chicago Center
01:08AM 42.0086 -87.1150 266° West 168 193 5,900  Level Chicago Center
01:09AM 42.0033 -87.1775 264° West 170 196 5,900  Level Chicago Center
01:10AM 41.9978 -87.2397 263° West 170 196 5,900  Level Chicago Center
01:11AM 41.9919 -87.3008 263° West 167 192 5,900  Level Chicago Center
01:12AM 41.9875 -87.3636 265° West 169 194 5,900  Level Chicago Center
01:13AM 41.9833 -87.4167 264° West 168 193 5,900  Level Chicago TRACON
01:14AM 41.9833 -87.4667 270° West 170 196 5,900  Level Chicago TRACON
01:15AM 41.9667 -87.5333 251° West 169 194 5,900  Level Chicago TRACON
01:16AM 41.9667 -87.5833 270° West 170 196 5,900 -120 Level Chicago TRACON
01:17AM 41.9667 -87.6500 270° West 172 198 5,700 -480 Descending Chicago TRACON
01:18AM 41.9500 -87.7167 251° West 186 214 5,000 -420 Descending Chicago TRACON
01:19AM 41.9500 -87.7833 270° West 167 192 4,900 -60 Descending Chicago TRACON
01:20AM 41.9500 -87.8500 270° West 161 185 4,900 -480 Level Chicago TRACON
01:21AM 41.9333 -87.9000 246° West 185 213 4,000 -660 Descending Chicago TRACON
01:22AM 41.9333 -87.9667 270° West 160 184 3,600 -600 Descending Chicago TRACON
01:23AM 41.9333 -88.0333 270° West 161 185 2,800 -780 Descending Chicago TRACON
01:24AM 41.9167 -88.0833 246° West 155 178 2,100 -540 Descending Chicago TRACON
01:25AM 41.9167 -88.1333 270° West 142 163 1,800 -300 Descending Chicago TRACON
01:26AM 41.9167 -88.1833 270° West 121 139 1,500 -480 Descending Chicago TRACON
01:27AM 41.9167 -88.2333 270° West 115 132 900 -600 Descending Chicago TRACON
01:29AM 41.9000 -88.2333 270° West  Level FlightAware Approximate
01:36AM 41.9071 -88.2480 270° West  Level Estimated
01:37AM 41.9071 -88.2480 270° West  Level Estimated